createdAt,value
2018-06-13T00:01:43.075Z,31.60
2018-06-13T00:04:11.229Z,32.00
2018-06-13T00:06:39.380Z,32.90
2018-06-13T00:09:08.834Z,32.50
2018-06-13T00:11:36.980Z,32.80
2018-06-13T00:14:05.355Z,31.80
2018-06-13T00:16:33.530Z,32.60
2018-06-13T00:19:01.710Z,32.60
2018-06-13T00:21:29.856Z,32.90
2018-06-13T00:23:58.018Z,32.50
2018-06-13T00:26:26.215Z,32.50
2018-06-13T00:28:54.383Z,33.50
2018-06-13T00:31:22.625Z,32.70
2018-06-13T00:33:50.776Z,33.30
2018-06-13T00:36:18.927Z,33.00
2018-06-13T00:38:47.097Z,32.40
2018-06-13T00:41:15.357Z,34.40
2018-06-13T00:43:43.532Z,30.20
2018-06-13T00:46:11.679Z,33.20
2018-06-13T00:48:39.875Z,34.20
2018-06-13T00:51:08.014Z,34.00
2018-06-13T00:53:36.167Z,34.10
2018-06-13T00:56:15.714Z,34.10
2018-06-13T00:58:43.904Z,33.80
2018-06-13T01:01:12.040Z,35.40
2018-06-13T01:03:40.169Z,35.70
2018-06-13T01:06:08.302Z,35.90
2018-06-13T01:08:36.485Z,34.70
2018-06-13T01:11:04.664Z,35.00
2018-06-13T01:13:32.788Z,36.00
2018-06-13T01:16:00.925Z,36.00
2018-06-13T01:18:29.135Z,37.20
2018-06-13T01:20:57.272Z,36.20
2018-06-13T01:23:25.457Z,37.40
2018-06-13T01:25:53.660Z,37.20
2018-06-13T01:28:21.780Z,37.00
2018-06-13T01:30:49.927Z,35.80
2018-06-13T01:33:18.067Z,37.80
2018-06-13T01:35:46.212Z,36.80
2018-06-13T01:38:14.360Z,37.20
2018-06-13T01:40:42.497Z,37.20
2018-06-13T01:43:10.636Z,35.60
2018-06-13T01:45:38.778Z,36.80
2018-06-13T01:48:06.928Z,37.10
2018-06-13T01:50:35.070Z,36.50
2018-06-13T01:53:03.250Z,35.80
2018-06-13T01:55:31.411Z,36.10
2018-06-13T01:57:59.555Z,36.50
2018-06-13T02:02:55.592Z,37.20
2018-06-13T02:05:23.767Z,36.40
2018-06-13T02:07:51.982Z,36.60
2018-06-13T02:10:20.132Z,39.00
2018-06-13T02:12:48.272Z,37.20
2018-06-13T02:15:16.412Z,37.80
2018-06-13T02:17:44.550Z,37.40
2018-06-13T02:22:40.574Z,39.00
2018-06-13T02:25:08.715Z,38.40
2018-06-13T02:27:36.832Z,40.50
2018-06-13T02:30:05.008Z,41.90
2018-06-13T02:32:33.191Z,42.60
2018-06-13T02:35:01.338Z,43.90
2018-06-13T02:37:29.487Z,44.60
2018-06-13T02:39:57.667Z,46.10
2018-06-13T02:42:25.818Z,46.50
2018-06-13T02:44:53.975Z,46.90
2018-06-13T02:47:22.172Z,49.40
2018-06-13T02:49:50.300Z,51.10
2018-06-13T02:52:18.444Z,50.80
2018-06-13T02:54:46.567Z,51.30
2018-06-13T02:57:14.729Z,52.50
2018-06-13T02:59:42.869Z,52.80
2018-06-13T03:02:11.006Z,52.70
2018-06-13T03:04:39.250Z,50.10
2018-06-13T03:07:07.400Z,50.80
2018-06-13T03:09:35.600Z,46.90
2018-06-13T03:12:03.768Z,40.90
2018-06-13T03:14:31.923Z,39.20
2018-06-13T03:17:00.081Z,37.80
2018-06-13T03:19:28.225Z,32.90
2018-06-13T03:21:56.378Z,30.40
2018-06-13T03:24:24.533Z,28.80
2018-06-13T03:26:52.669Z,29.70
2018-06-13T03:29:20.846Z,27.80
2018-06-13T03:31:49.033Z,28.50
2018-06-13T03:34:17.167Z,27.50
2018-06-13T03:36:45.308Z,26.20
2018-06-13T03:39:13.480Z,26.00
2018-06-13T03:41:41.627Z,26.00
2018-06-13T03:44:09.768Z,26.60
2018-06-13T03:46:37.940Z,24.90
2018-06-13T03:49:06.061Z,22.80
2018-06-13T03:51:34.283Z,21.60
2018-06-13T03:54:02.416Z,20.90
2018-06-13T03:56:30.544Z,21.60
2018-06-13T03:58:58.707Z,18.60
2018-06-13T04:01:26.924Z,18.20
2018-06-13T04:03:55.066Z,17.90
2018-06-13T04:06:23.192Z,17.50
2018-06-13T04:08:51.319Z,17.90
2018-06-13T04:11:19.466Z,18.10
2018-06-13T04:13:47.611Z,18.90
2018-06-13T04:16:15.802Z,19.40
2018-06-13T04:18:43.940Z,19.30
2018-06-13T04:21:12.073Z,18.70
2018-06-13T04:23:40.252Z,19.40
2018-06-13T04:26:08.404Z,20.20
2018-06-13T04:28:36.632Z,21.10
2018-06-13T04:31:04.767Z,20.50
2018-06-13T04:33:32.904Z,20.00
2018-06-13T04:36:01.052Z,20.70
2018-06-13T04:38:29.201Z,21.70
2018-06-13T04:40:57.358Z,21.40
2018-06-13T04:43:25.527Z,20.60
2018-06-13T04:45:53.656Z,22.90
2018-06-13T04:48:21.779Z,21.80
2018-06-13T04:50:49.920Z,24.10
2018-06-13T04:53:18.040Z,24.90
2018-06-13T04:55:46.172Z,26.50
2018-06-13T04:58:14.374Z,27.40
2018-06-13T05:00:42.551Z,28.40
2018-06-13T05:03:10.696Z,29.70
2018-06-13T05:05:38.896Z,30.50
2018-06-13T05:08:07.033Z,31.60
2018-06-13T05:10:35.191Z,32.60
2018-06-13T05:13:03.364Z,32.10
2018-06-13T05:15:31.508Z,29.40
2018-06-13T05:17:59.628Z,30.40
2018-06-13T05:20:27.779Z,26.80
2018-06-13T05:22:55.910Z,25.40
2018-06-13T05:25:24.049Z,25.70
2018-06-13T05:27:52.160Z,23.90
2018-06-13T05:30:20.341Z,23.30
2018-06-13T05:32:48.549Z,19.70
2018-06-13T05:35:16.726Z,20.50
2018-06-13T05:37:44.902Z,20.50
2018-06-13T05:40:13.063Z,22.30
2018-06-13T05:42:41.199Z,17.50
2018-06-13T05:45:09.362Z,17.20
2018-06-13T05:47:37.497Z,17.00
2018-06-13T05:50:05.673Z,18.30
2018-06-13T05:52:33.805Z,14.90
2018-06-13T05:55:02.638Z,14.60
2018-06-13T05:57:30.725Z,14.80
2018-06-13T05:59:59.160Z,12.60
2018-06-13T06:02:27.299Z,13.40
2018-06-13T06:04:55.489Z,11.70
2018-06-13T06:07:23.620Z,12.50
2018-06-13T06:09:51.743Z,10.20
2018-06-13T06:12:19.885Z,10.20
2018-06-13T06:14:48.073Z,10.80
2018-06-13T06:17:16.197Z,11.90
2018-06-13T06:19:44.348Z,12.00
2018-06-13T06:22:12.479Z,10.90
2018-06-13T06:24:40.673Z,12.90
2018-06-13T06:27:08.792Z,11.50
2018-06-13T06:29:36.941Z,11.80
2018-06-13T06:32:05.065Z,13.10
2018-06-13T06:34:33.218Z,12.30
2018-06-13T06:37:01.363Z,11.30
2018-06-13T06:39:29.556Z,9.20
2018-06-13T06:41:57.695Z,7.80
2018-06-13T06:44:25.865Z,7.80
2018-06-13T06:46:54.014Z,8.30
2018-06-13T06:49:22.157Z,7.30
2018-06-13T06:51:50.332Z,8.00
2018-06-13T06:54:18.476Z,5.20
2018-06-13T06:56:46.624Z,3.30
2018-06-13T06:59:14.787Z,4.60
2018-06-13T07:01:42.919Z,3.30
2018-06-13T07:04:11.045Z,4.00
2018-06-13T07:06:39.223Z,4.80
2018-06-13T07:09:08.629Z,3.80
2018-06-13T07:11:36.818Z,3.80
2018-06-13T07:14:05.439Z,4.50
2018-06-13T07:16:33.604Z,3.60
2018-06-13T07:19:01.769Z,5.50
2018-06-13T07:21:29.891Z,5.50
2018-06-13T07:23:58.084Z,5.50
2018-06-13T07:26:26.234Z,5.20
2018-06-13T07:28:54.436Z,4.50
2018-06-13T07:31:22.598Z,2.70
2018-06-13T07:33:50.782Z,3.30
2018-06-13T07:36:18.961Z,3.70
2018-06-13T07:38:47.124Z,4.00
2018-06-13T07:41:15.276Z,4.10
2018-06-13T07:43:43.414Z,4.90
2018-06-13T07:46:11.557Z,5.50
2018-06-13T07:48:39.712Z,5.20
2018-06-13T07:51:07.825Z,5.60
2018-06-13T07:53:35.983Z,4.50
2018-06-13T07:56:04.653Z,4.40
2018-06-13T07:58:34.658Z,3.30
2018-06-13T08:01:03.321Z,3.00
2018-06-13T08:03:31.769Z,6.30
2018-06-13T08:06:00.799Z,3.70
2018-06-13T08:08:29.102Z,3.90
2018-06-13T08:10:57.491Z,3.70
2018-06-13T08:13:25.890Z,2.80
2018-06-13T08:18:24.175Z,4.20
2018-06-13T08:20:56.702Z,4.10
2018-06-13T08:23:25.317Z,4.10
2018-06-13T08:28:21.667Z,2.90
2018-06-13T08:30:49.829Z,2.80
2018-06-13T08:33:18.016Z,2.20
2018-06-13T08:35:46.159Z,2.90
2018-06-13T08:38:14.341Z,1.70
2018-06-13T08:40:42.483Z,29.70
2018-06-13T08:43:10.625Z,5.20
2018-06-13T08:45:38.777Z,6.90
2018-06-13T08:48:06.957Z,4.50
2018-06-13T08:50:35.090Z,2.30
2018-06-13T08:53:03.244Z,4.10
2018-06-13T08:55:31.375Z,4.30
2018-06-13T08:57:59.552Z,1.50
2018-06-13T09:00:27.700Z,5.60
2018-06-13T09:02:55.854Z,2.40
2018-06-13T09:05:24.012Z,1.60
2018-06-13T09:07:52.312Z,1.70
2018-06-13T09:10:20.455Z,2.40
2018-06-13T09:12:48.597Z,2.00
2018-06-13T09:15:16.806Z,1.00
2018-06-13T09:17:45.009Z,1.00
2018-06-13T09:20:13.139Z,1.00
2018-06-13T09:22:41.272Z,1.00
2018-06-13T09:25:09.395Z,1.00
2018-06-13T09:27:37.532Z,1.00
2018-06-13T09:30:05.739Z,1.00
2018-06-13T09:32:33.882Z,1.00
2018-06-13T09:35:02.038Z,1.00
2018-06-13T09:37:30.300Z,1.00
2018-06-13T09:39:58.424Z,1.00
2018-06-13T09:42:26.578Z,1.00
2018-06-13T09:44:54.736Z,1.00
2018-06-13T09:47:23.454Z,1.00
2018-06-13T09:49:51.117Z,1.00
2018-06-13T09:52:19.277Z,1.00
2018-06-13T09:54:47.435Z,1.00
2018-06-13T09:57:15.531Z,1.00
2018-06-13T09:59:49.048Z,1.00
2018-06-13T10:02:17.297Z,1.00
2018-06-13T10:04:46.238Z,1.00
2018-06-13T10:07:14.356Z,1.00
2018-06-13T10:09:42.485Z,1.00
2018-06-13T10:12:10.612Z,1.00
2018-06-13T10:14:38.731Z,1.00
2018-06-13T10:17:06.942Z,1.00
2018-06-13T10:19:35.064Z,1.00
2018-06-13T10:22:03.278Z,1.00
2018-06-13T10:24:31.428Z,1.00
2018-06-13T10:26:59.554Z,1.00
2018-06-13T10:29:27.699Z,1.00
2018-06-13T10:31:55.833Z,1.00
2018-06-13T10:34:24.045Z,1.00
2018-06-13T10:36:52.357Z,1.00
2018-06-13T10:39:20.503Z,1.00
2018-06-13T10:41:48.640Z,1.00
2018-06-13T10:44:16.805Z,1.00
2018-06-13T10:46:44.961Z,1.00
2018-06-13T10:49:13.107Z,1.00
2018-06-13T10:51:41.229Z,1.00
2018-06-13T10:54:09.368Z,1.00
2018-06-13T10:56:37.490Z,1.00
2018-06-13T10:59:05.798Z,1.00
2018-06-13T11:01:33.999Z,1.00
2018-06-13T11:04:02.137Z,1.00
2018-06-13T11:06:30.637Z,1.00
2018-06-13T11:08:58.841Z,1.00
2018-06-13T11:11:26.992Z,1.00
2018-06-13T11:13:55.154Z,1.00
2018-06-13T11:16:23.272Z,1.00
2018-06-13T11:18:51.494Z,1.00
2018-06-13T11:21:19.691Z,1.00
2018-06-13T11:23:47.841Z,1.00
2018-06-13T11:26:16.018Z,1.00
2018-06-13T11:28:44.131Z,1.00
2018-06-13T11:31:12.526Z,1.00
2018-06-13T11:33:40.653Z,1.00
2018-06-13T11:36:08.780Z,1.00
2018-06-13T11:38:36.947Z,1.00
2018-06-13T11:41:05.162Z,1.00
2018-06-13T11:43:33.398Z,1.00
2018-06-13T11:46:01.575Z,1.00
2018-06-13T11:48:29.853Z,1.00
2018-06-13T11:50:57.997Z,1.00
2018-06-13T11:53:26.139Z,1.00
2018-06-13T11:55:54.416Z,1.00
2018-06-13T11:58:22.562Z,1.00
2018-06-13T12:00:50.681Z,1.00
2018-06-13T12:03:18.872Z,1.00
2018-06-13T12:05:47.059Z,1.00
2018-06-13T12:08:15.226Z,1.00
2018-06-13T12:10:43.548Z,1.00
2018-06-13T12:13:11.906Z,1.00
2018-06-13T12:15:40.428Z,1.00
2018-06-13T12:18:08.630Z,1.00
2018-06-13T12:20:36.762Z,1.00
2018-06-13T12:23:04.966Z,1.00
2018-06-13T12:25:33.367Z,1.00
2018-06-13T12:28:01.606Z,1.00
2018-06-13T12:30:29.913Z,1.00
2018-06-13T12:32:58.176Z,1.00
2018-06-13T12:35:26.379Z,1.00
2018-06-13T12:37:54.487Z,1.00
2018-06-13T12:40:22.689Z,1.00
2018-06-13T12:42:50.820Z,1.00
2018-06-13T12:45:18.967Z,1.00
2018-06-13T12:47:47.193Z,1.00
2018-06-13T12:50:15.359Z,1.00
2018-06-13T12:52:43.517Z,1.00
2018-06-13T12:55:11.658Z,1.00
2018-06-13T12:57:39.822Z,1.00
2018-06-13T13:00:07.988Z,1.00
2018-06-13T13:02:36.183Z,1.00
2018-06-13T13:05:04.434Z,1.00
2018-06-13T13:07:32.553Z,1.00
2018-06-13T13:10:00.719Z,1.00
2018-06-13T13:12:28.906Z,1.00
2018-06-13T13:14:57.040Z,1.00
2018-06-13T13:17:25.211Z,1.00
2018-06-13T13:19:53.363Z,1.00
2018-06-13T13:22:22.679Z,1.00
2018-06-13T13:24:50.882Z,1.00
2018-06-13T13:27:19.015Z,1.00
2018-06-13T13:29:47.152Z,1.00
2018-06-13T13:32:15.310Z,1.00
2018-06-13T13:34:43.468Z,1.00
2018-06-13T13:37:11.769Z,1.00
2018-06-13T13:39:39.902Z,1.00
2018-06-13T13:42:08.023Z,1.00
2018-06-13T13:44:36.160Z,1.00
2018-06-13T13:47:04.298Z,1.00
2018-06-13T13:49:32.420Z,1.00
2018-06-13T13:52:00.556Z,1.00
2018-06-13T13:54:28.734Z,1.00
2018-06-13T13:56:56.988Z,1.00
2018-06-13T13:59:25.160Z,1.00
2018-06-13T14:01:53.314Z,1.00
2018-06-13T14:04:21.985Z,1.00
2018-06-13T14:06:50.099Z,1.00
2018-06-13T14:09:18.236Z,1.00
2018-06-13T14:11:46.442Z,1.00
2018-06-13T14:14:14.713Z,1.00
2018-06-13T14:16:42.844Z,1.00
2018-06-13T14:19:11.067Z,1.00
2018-06-13T14:21:39.235Z,1.00
2018-06-13T14:24:07.418Z,1.00
2018-06-13T14:26:35.528Z,1.00
2018-06-13T14:29:03.725Z,1.00
2018-06-13T14:31:31.916Z,1.00
2018-06-13T14:34:00.074Z,1.00
2018-06-13T14:36:28.220Z,1.00
2018-06-13T14:38:56.325Z,1.00
2018-06-13T14:41:24.566Z,1.00
2018-06-13T14:43:52.731Z,1.00
2018-06-13T14:46:20.905Z,1.00
2018-06-13T14:48:49.028Z,1.00
2018-06-13T14:51:17.176Z,1.00
2018-06-13T14:53:45.331Z,1.00
2018-06-13T14:56:18.841Z,1.00
2018-06-13T14:58:48.905Z,1.00
2018-06-13T15:01:17.049Z,1.00
2018-06-13T15:03:46.418Z,1.00
2018-06-13T15:06:15.640Z,1.00
2018-06-13T15:08:44.411Z,1.00
2018-06-13T15:11:12.572Z,1.00
2018-06-13T15:13:41.707Z,1.00
2018-06-13T15:16:10.149Z,1.00
2018-06-13T15:21:09.190Z,5.00
2018-06-13T15:23:37.447Z,31.00
2018-06-13T15:26:05.644Z,5.80
2018-06-13T15:28:34.448Z,6.80
2018-06-13T15:31:02.600Z,1.00
2018-06-13T15:33:30.795Z,1.00
2018-06-13T15:35:58.945Z,1.00
2018-06-13T15:38:27.200Z,1.00
2018-06-13T15:40:55.621Z,1.00
2018-06-13T15:43:24.032Z,1.00
2018-06-13T15:45:52.208Z,1.00
2018-06-13T15:48:20.379Z,1.00
2018-06-13T15:50:48.532Z,1.00
2018-06-13T15:55:44.668Z,1.00
2018-06-13T15:58:12.896Z,1.00
2018-06-13T16:00:41.138Z,1.00
2018-06-13T16:03:09.282Z,1.00
2018-06-13T16:05:37.483Z,1.00
2018-06-13T16:08:05.648Z,1.00
2018-06-13T16:10:33.841Z,1.00
2018-06-13T16:13:02.031Z,1.00
2018-06-13T16:15:30.182Z,1.00
2018-06-13T16:17:58.371Z,1.00
2018-06-13T16:20:26.625Z,1.00
2018-06-13T16:22:54.784Z,1.00
2018-06-13T16:25:22.963Z,1.00
2018-06-13T16:27:51.118Z,1.00
2018-06-13T16:30:19.300Z,1.00
2018-06-13T16:32:47.464Z,1.00
2018-06-13T16:35:15.592Z,1.00
2018-06-13T16:37:43.739Z,1.00
2018-06-13T16:40:11.931Z,1.00
2018-06-13T16:42:40.112Z,1.00
2018-06-13T16:45:08.244Z,1.00
2018-06-13T16:47:36.394Z,1.00
2018-06-13T16:50:15.900Z,1.00
2018-06-13T16:53:00.609Z,1.00
2018-06-13T16:55:28.798Z,1.00
2018-06-13T16:57:57.033Z,1.00
2018-06-13T17:00:25.213Z,1.00
2018-06-13T17:02:53.566Z,1.00
2018-06-13T17:05:21.745Z,1.00
2018-06-13T17:07:50.031Z,1.00
2018-06-13T17:10:18.193Z,1.00
2018-06-13T17:12:46.350Z,1.00
2018-06-13T17:15:14.496Z,1.00
2018-06-13T17:17:42.631Z,1.00
2018-06-13T17:20:10.791Z,1.00
2018-06-13T17:22:39.022Z,1.00
2018-06-13T17:25:07.208Z,1.00
2018-06-13T17:27:35.421Z,1.00
2018-06-13T17:30:03.488Z,1.00
2018-06-13T17:32:31.623Z,1.00
2018-06-13T17:34:59.832Z,1.00
2018-06-13T17:37:28.074Z,1.00
2018-06-13T17:39:56.246Z,1.00
2018-06-13T17:42:24.413Z,1.00
2018-06-13T17:44:52.578Z,1.00
2018-06-13T17:47:20.701Z,1.00
2018-06-13T17:49:48.885Z,1.00
2018-06-13T17:52:17.009Z,1.00
2018-06-13T17:54:45.137Z,1.00
2018-06-13T17:57:13.290Z,1.00
2018-06-13T17:59:41.458Z,1.00
2018-06-13T18:02:09.615Z,1.00
2018-06-13T18:04:37.813Z,1.00
2018-06-13T18:07:06.008Z,1.00
2018-06-13T18:09:34.205Z,1.00
2018-06-13T18:12:02.385Z,1.00
2018-06-13T18:14:30.553Z,1.00
2018-06-13T18:16:58.773Z,1.00
2018-06-13T18:19:27.028Z,1.00
2018-06-13T18:21:55.308Z,1.00
2018-06-13T18:24:23.484Z,1.00
2018-06-13T18:26:51.716Z,1.00
2018-06-13T18:29:19.924Z,1.00
2018-06-13T18:31:48.140Z,1.00
2018-06-13T18:34:16.372Z,1.00
2018-06-13T18:36:44.475Z,1.00
2018-06-13T18:39:13.165Z,1.00
2018-06-13T18:41:41.876Z,1.00
2018-06-13T18:44:10.028Z,1.00
2018-06-13T18:46:38.199Z,1.00
2018-06-13T18:49:06.333Z,1.00
2018-06-13T18:51:34.497Z,1.00
2018-06-13T18:54:02.654Z,1.00
2018-06-13T18:56:30.835Z,1.00
2018-06-13T18:58:59.010Z,1.00
2018-06-13T19:01:27.196Z,1.00
2018-06-13T19:03:55.409Z,1.00
2018-06-13T19:06:23.490Z,1.00
2018-06-13T19:08:51.633Z,1.00
2018-06-13T19:11:19.781Z,1.00
2018-06-13T19:13:47.933Z,1.00
2018-06-13T19:18:44.014Z,1.00
2018-06-13T19:21:12.231Z,1.00
2018-06-13T19:23:40.371Z,1.00
2018-06-13T19:26:08.552Z,1.00
2018-06-13T19:28:36.704Z,1.00
2018-06-13T19:31:04.871Z,1.00
2018-06-13T19:33:33.021Z,1.00
2018-06-13T19:36:01.271Z,1.00
2018-06-13T19:38:29.468Z,1.00
2018-06-13T19:40:58.447Z,1.00
2018-06-13T19:43:31.952Z,1.00
2018-06-13T19:46:00.184Z,1.00
2018-06-13T19:48:33.745Z,1.00
2018-06-13T19:51:01.892Z,1.00
2018-06-13T19:53:35.484Z,1.00
2018-06-13T19:56:08.059Z,1.00
2018-06-13T19:58:37.169Z,1.00
2018-06-13T20:01:05.549Z,1.00
2018-06-13T20:03:39.213Z,1.00
2018-06-13T20:06:07.464Z,1.00
2018-06-13T20:08:35.887Z,1.00
2018-06-13T20:11:04.198Z,1.00
2018-06-13T20:13:37.741Z,1.00
2018-06-13T20:16:11.513Z,1.20
2018-06-13T20:18:45.079Z,2.40
2018-06-13T20:21:13.357Z,1.00
2018-06-13T20:23:42.557Z,1.80
2018-06-13T20:26:16.104Z,1.00
2018-06-13T20:28:49.753Z,1.30
2018-06-13T20:31:23.803Z,1.20
2018-06-13T20:33:51.933Z,1.40
2018-06-13T20:36:20.121Z,1.60
2018-06-13T20:38:48.288Z,1.80
2018-06-13T20:41:16.465Z,1.60
2018-06-13T20:46:14.500Z,2.60
2018-06-13T20:48:42.675Z,1.10
2018-06-13T20:51:10.940Z,2.40
2018-06-13T20:53:39.123Z,2.20
2018-06-13T20:56:07.321Z,1.90
2018-06-13T20:58:35.482Z,1.70
2018-06-13T21:01:03.682Z,2.50
2018-06-13T21:03:31.881Z,3.50
2018-06-13T21:06:00.130Z,4.70
2018-06-13T21:08:28.424Z,4.00
2018-06-13T21:10:56.565Z,3.80
2018-06-13T21:13:24.740Z,3.00
2018-06-13T21:15:52.949Z,3.50
2018-06-13T21:18:21.115Z,3.30
2018-06-13T21:20:49.372Z,3.50
2018-06-13T21:23:17.526Z,3.90
2018-06-13T21:25:45.779Z,3.50
2018-06-13T21:28:14.155Z,3.50
2018-06-13T21:30:42.356Z,3.90
2018-06-13T21:33:10.540Z,5.20
2018-06-13T21:35:38.673Z,5.10
2018-06-13T21:38:06.835Z,5.30
2018-06-13T21:40:34.992Z,5.60
2018-06-13T21:43:03.248Z,6.00
2018-06-13T21:45:31.396Z,6.40
2018-06-13T21:47:59.577Z,7.10
2018-06-13T21:50:27.716Z,7.00
2018-06-13T21:52:55.968Z,7.20
2018-06-13T21:55:24.115Z,8.00
2018-06-13T21:57:52.318Z,7.50
2018-06-13T22:00:20.578Z,7.00
2018-06-13T22:02:48.724Z,6.80
2018-06-13T22:05:16.936Z,7.30
2018-06-13T22:07:45.086Z,8.30
2018-06-13T22:10:13.345Z,9.00
2018-06-13T22:12:41.489Z,9.30
2018-06-13T22:15:14.920Z,9.30
2018-06-13T22:17:43.081Z,7.80
2018-06-13T22:20:11.246Z,8.80
2018-06-13T22:22:39.408Z,8.90
2018-06-13T22:25:07.614Z,9.30
2018-06-13T22:27:35.732Z,8.80
2018-06-13T22:30:03.990Z,8.70
2018-06-13T22:32:32.093Z,9.50
2018-06-13T22:35:00.251Z,10.20
2018-06-13T22:37:28.415Z,10.00
2018-06-13T22:39:56.568Z,10.00
2018-06-13T22:42:24.725Z,10.40
2018-06-13T22:44:52.876Z,9.20
2018-06-13T22:47:21.054Z,9.40
2018-06-13T22:49:49.200Z,9.80
2018-06-13T22:52:17.368Z,9.60
2018-06-13T22:54:45.507Z,9.50
2018-06-13T22:57:13.668Z,9.20
2018-06-13T22:59:41.830Z,10.10
2018-06-13T23:02:09.985Z,11.10
2018-06-13T23:04:38.144Z,12.30
2018-06-13T23:07:06.356Z,12.60
2018-06-13T23:09:34.530Z,14.50
2018-06-13T23:12:02.717Z,12.30
2018-06-13T23:14:30.922Z,14.10
2018-06-13T23:16:59.149Z,16.40
2018-06-13T23:19:27.349Z,15.30
2018-06-13T23:21:55.510Z,14.30
2018-06-13T23:24:23.695Z,15.50
2018-06-13T23:26:51.881Z,16.00
2018-06-13T23:29:20.051Z,16.60
2018-06-13T23:31:48.228Z,16.60
2018-06-13T23:34:16.381Z,15.90
2018-06-13T23:36:45.760Z,16.30
2018-06-13T23:39:13.976Z,16.80
2018-06-13T23:41:42.083Z,16.60
2018-06-13T23:44:10.284Z,17.90
2018-06-13T23:46:38.511Z,15.00
2018-06-13T23:49:06.701Z,15.10
2018-06-13T23:51:34.934Z,14.00
2018-06-13T23:54:03.176Z,16.50
2018-06-13T23:56:31.393Z,14.40
2018-06-13T23:58:59.555Z,13.50
